首页
METAR-TAF:

METAR-TAF

机场 :

西恩富戈斯, 古巴

纬度: 22-09N, 经度: 080-24W, 海拔: 39米

当前天气观测

该预报发布于45分钟前的20:59 UTC
风速4节,风向西转西南,在西之间变化
温度 31°C
湿度 52%
气压 1014 hPa

METAR: MUCF 172059Z AUTO 24004KT 190V280 31/20 Q1014

时间: 17:44 (21:44 UTC)

预报

该预报发布于4小时和44分钟前的17:00 UTC
预报有效从17日的 18点(UTC)到 18日的 06点(UTC)
风速10节,风向东转东北
能見度: 9000
散云层高于2000英尺

TAF: MUCF 171700Z 1718/1806 07010KT 9000 SCT020

超过4000个机场的气象观测和天气预报(METAR&TAF报告)。

可查询的气象台以黄色和红色小点在地图上表示。

将鼠标移到小点上方,可查看气象台名称。

然后点击查看天气观测和预报。

如需切换地图:点击带黑十字的绿色按钮放大地图;点击带横线的绿色按钮缩小地图;或者点击绿色箭头查看邻近地区的地图。


METAR-TAF: